Time;durP1;ratioP1;P1;durP2;ratioP2;P2;SDS_P1;SDS_P2;PMS_P1;PMS_P2;Temp;Humidity;BMP_temperature;BMP_pressure;BME280_temperature;BME280_humidity;BME280_pressure;Samples;Min_cycle;Max_cycle;Signal;HPM_P1;HPM_P2
2021/04/16 00:02:24;;;;;;;5.97;2.28;;;;;;;4.71;49.49;98041.03;5070177;28;20020;-76
2021/04/16 00:04:49;;;;;;;2.53;1.55;;;;;;;4.61;49.58;98033.59;5098152;28;20095;-76
2021/04/16 00:07:15;;;;;;;3.28;1.92;;;;;;;4.64;50.12;98030.66;5087468;27;20434;-76
2021/04/16 00:09:40;;;;;;;3.92;1.63;;;;;;;4.67;49.86;98027.69;5090424;27;20076;-76
2021/04/16 00:12:06;;;;;;;4.07;1.63;;;;;;;4.66;49.80;98026.13;5090129;27;20035;-76
2021/04/16 00:14:33;;;;;;;3.10;1.60;;;;;;;4.68;49.91;98025.94;5078986;27;20023;-76
2021/04/16 00:16:59;;;;;;;4.50;1.85;;;;;;;4.62;50.15;98024.09;5079196;27;20503;-76
2021/04/16 00:19:24;;;;;;;4.88;1.50;;;;;;;4.64;50.47;98010.03;5096347;27;20035;-76
2021/04/16 00:21:49;;;;;;;4.90;1.70;;;;;;;4.54;49.97;98022.44;5088394;27;20390;-75
2021/04/16 00:24:15;;;;;;;5.68;3.03;;;;;;;4.56;50.60;98017.88;5091379;27;20432;-76
2021/04/16 00:26:44;;;;;;;3.85;1.83;;;;;;;4.46;50.81;98018.19;5093257;27;20087;-76
2021/04/16 00:29:09;;;;;;;2.95;2.08;;;;;;;4.53;50.89;98013.09;5095989;27;20119;-76
2021/04/16 00:31:36;;;;;;;2.80;1.70;;;;;;;4.54;50.49;98025.03;5096365;27;20102;-76
2021/04/16 00:34:02;;;;;;;2.63;1.90;;;;;;;4.56;50.55;98012.72;5078393;27;20053;-76
2021/04/16 00:36:30;;;;;;;5.07;2.03;;;;;;;4.49;50.65;98010.09;5112720;27;20035;-76
2021/04/16 00:38:56;;;;;;;2.92;1.70;;;;;;;4.59;50.76;98003.81;5091305;27;20032;-76
2021/04/16 00:41:25;;;;;;;3.33;1.80;;;;;;;4.46;50.94;98009.66;5108835;27;20043;-76
2021/04/16 00:43:51;;;;;;;3.63;1.77;;;;;;;4.64;50.97;97997.13;5105700;27;20096;-76
2021/04/16 00:46:45;;;;;;;3.63;2.00;;;;;;;4.47;51.01;98004.31;5079445;27;20466;-76
2021/04/16 00:49:17;;;;;;;3.60;1.98;;;;;;;4.58;50.84;97999.66;5112382;27;20027;-76
2021/04/16 00:51:49;;;;;;;2.28;1.70;;;;;;;4.51;50.52;98002.16;5101249;28;20031;-76
2021/04/16 00:54:25;;;;;;;5.10;2.28;;;;;;;4.43;50.60;97997.13;5094753;27;20035;-76
2021/04/16 00:56:51;;;;;;;2.22;1.40;;;;;;;4.64;50.59;97989.41;5078985;27;20059;-76
2021/04/16 00:59:20;;;;;;;4.15;2.22;;;;;;;4.47;50.90;97994.00;5077342;27;20027;-75
2021/04/16 01:01:46;;;;;;;3.33;2.20;;;;;;;4.56;51.26;97997.25;5124933;27;20041;-75
2021/04/16 01:04:12;;;;;;;4.28;2.05;;;;;;;4.59;50.90;97999.47;5057550;28;20024;-76
2021/04/16 01:06:40;;;;;;;3.50;1.92;;;;;;;4.57;51.55;97987.72;5106845;27;20035;-76
2021/04/16 01:09:06;;;;;;;3.25;2.00;;;;;;;4.60;51.27;97985.56;5095238;27;20027;-76
2021/04/16 01:11:32;;;;;;;3.85;2.00;;;;;;;4.59;51.14;97986.56;5071756;27;20125;-76
2021/04/16 01:13:57;;;;;;;3.88;2.08;;;;;;;4.55;51.18;97987.13;5091547;27;20164;-76
2021/04/16 01:16:28;;;;;;;3.95;1.73;;;;;;;4.46;51.67;97987.25;5112143;27;20031;-76
2021/04/16 01:18:55;;;;;;;5.07;2.33;;;;;;;4.45;51.65;97987.44;5092096;27;20106;-76
2021/04/16 01:21:24;;;;;;;2.80;2.17;;;;;;;4.33;51.74;97992.28;5091146;27;20027;-76
2021/04/16 01:24:15;;;;;;;4.85;2.55;;;;;;;4.11;52.18;97983.72;5103071;28;20020;-76
2021/04/16 01:26:40;;;;;;;3.63;1.95;;;;;;;4.44;52.06;97989.22;5111686;27;20484;-76
2021/04/16 01:29:06;;;;;;;3.22;1.80;;;;;;;4.52;51.77;97990.06;5105730;27;20031;-76
2021/04/16 01:31:32;;;;;;;3.88;2.13;;;;;;;4.50;51.68;97983.31;5094227;27;20039;-76
2021/04/16 01:33:58;;;;;;;3.22;2.38;;;;;;;4.46;52.04;97983.88;5106950;28;20036;-76
2021/04/16 01:36:27;;;;;;;3.05;1.85;;;;;;;4.26;52.32;97981.91;5109678;27;20027;-76
2021/04/16 01:38:54;;;;;;;4.13;2.45;;;;;;;4.47;51.86;97977.72;5102714;27;20066;-76
2021/04/16 01:41:20;;;;;;;4.45;2.35;;;;;;;4.54;51.49;97978.59;5088470;27;20051;-76
2021/04/16 01:43:53;;;;;;;5.15;2.50;;;;;;;4.27;51.59;97975.78;5062901;27;20129;-76
2021/04/16 01:46:19;;;;;;;5.45;2.65;;;;;;;4.52;52.38;97975.38;5130219;27;20459;-75
2021/04/16 01:48:52;;;;;;;4.50;2.50;;;;;;;4.46;51.97;97982.09;5110416;27;20031;-76
2021/04/16 01:51:30;;;;;;;3.08;2.10;;;;;;;4.26;51.79;97976.72;5095800;27;20031;-76
2021/04/16 01:54:27;;;;;;;5.47;3.65;;;;;;;4.10;52.13;97974.41;5091101;27;20023;-76
2021/04/16 01:57:26;;;;;;;5.00;3.17;;;;;;;3.99;52.80;97969.72;5088783;27;20019;-76
2021/04/16 01:59:52;;;;;;;4.80;3.03;;;;;;;4.39;52.42;97975.28;5070484;28;20486;-76
2021/04/16 02:02:38;;;;;;;4.68;2.78;;;;;;;4.10;52.89;97970.03;5093203;27;20054;-76
2021/04/16 02:05:04;;;;;;;;;;;;;;;3.92;53.28;97967.88;5091625;28;20398;-76
2021/04/16 02:07:29;;;;;;;4.43;2.40;;;;;;;4.31;52.39;97961.50;5126496;27;19908;-76
2021/04/16 02:09:54;;;;;;;4.47;2.40;;;;;;;4.34;52.92;97962.16;5098225;28;20062;-76
2021/04/16 02:12:23;;;;;;;3.67;2.70;;;;;;;4.33;52.86;97961.34;5091177;27;20089;-75
2021/04/16 02:14:50;;;;;;;5.13;2.90;;;;;;;4.17;52.78;97956.44;5067078;27;20058;-76
2021/04/16 02:17:19;;;;;;;4.40;2.35;;;;;;;4.17;52.95;97964.97;5060215;28;20082;-76
2021/04/16 02:19:45;;;;;;;4.78;2.83;;;;;;;4.24;53.16;97957.28;5077814;28;20434;-76
2021/04/16 02:22:16;;;;;;;6.00;2.80;;;;;;;4.10;52.80;97958.94;5107506;28;20213;-76
2021/04/16 02:24:42;;;;;;;5.70;3.03;;;;;;;4.30;53.64;97961.69;5082958;27;20494;-76
2021/04/16 02:27:08;;;;;;;4.30;3.00;;;;;;;4.31;53.64;97947.84;5107562;28;20035;-76
2021/04/16 02:29:33;;;;;;;3.97;3.15;;;;;;;4.34;53.28;97957.00;5083066;28;20028;-76
2021/04/16 02:31:59;;;;;;;5.28;3.17;;;;;;;4.28;53.48;97954.19;5070218;28;20252;-76
2021/04/16 02:34:27;;;;;;;5.57;2.90;;;;;;;4.24;53.40;97960.66;5092015;27;20031;-76
2021/04/16 02:36:55;;;;;;;4.40;3.22;;;;;;;4.35;53.74;97949.06;5093641;27;20033;-76
2021/04/16 02:39:21;;;;;;;4.75;3.25;;;;;;;4.36;53.77;97955.03;5076138;27;20062;-76
2021/04/16 02:41:47;;;;;;;4.78;3.10;;;;;;;4.40;53.26;97951.88;5106500;27;20450;-76
2021/04/16 02:44:12;;;;;;;5.28;3.22;;;;;;;4.38;53.59;97953.84;5093414;27;20057;-76
2021/04/16 02:46:40;;;;;;;5.93;3.35;;;;;;;4.35;53.61;97949.06;5078487;28;20039;-76
2021/04/16 02:49:07;;;;;;;6.70;3.33;;;;;;;4.29;53.48;97953.19;5104870;27;20035;-76
2021/04/16 02:51:33;;;;;;;5.82;3.38;;;;;;;4.31;53.63;97947.84;5059281;27;20477;-76
2021/04/16 02:53:59;;;;;;;5.30;3.33;;;;;;;4.32;53.92;97954.59;5109658;27;20027;-76
2021/04/16 02:56:25;;;;;;;6.85;3.08;;;;;;;4.30;53.80;97946.22;5092700;28;20027;-76
2021/04/16 02:58:51;;;;;;;6.20;3.72;;;;;;;4.35;54.01;97941.31;5073216;28;20020;-76
2021/04/16 03:01:17;;;;;;;5.47;3.70;;;;;;;4.30;54.21;97941.88;5108178;28;20035;-76
2021/04/16 03:03:42;;;;;;;7.53;3.85;;;;;;;4.31;53.93;97946.03;5110003;28;20023;-76
2021/04/16 03:06:08;;;;;;;5.57;3.60;;;;;;;4.10;54.84;97953.78;5084042;28;20035;-76
2021/04/16 03:08:34;;;;;;;6.05;3.78;;;;;;;4.23;54.37;97951.34;5089977;28;20031;-76
2021/04/16 03:11:00;;;;;;;5.95;3.47;;;;;;;4.27;54.61;97944.03;5128029;28;20059;-76
2021/04/16 03:13:25;;;;;;;7.07;4.03;;;;;;;4.23;54.31;97941.03;5107610;28;20031;-76
2021/04/16 03:15:51;;;;;;;7.10;4.13;;;;;;;4.15;55.05;97938.59;5110655;28;20478;-75
2021/04/16 03:18:16;;;;;;;5.22;4.03;;;;;;;4.08;55.26;97935.16;5084122;28;20049;-76
2021/04/16 03:20:42;;;;;;;6.22;4.22;;;;;;;4.15;55.12;97941.16;5093948;28;20393;-76
2021/04/16 03:23:07;;;;;;;6.82;4.25;;;;;;;4.04;55.62;97936.47;5110706;28;20062;-76
2021/04/16 03:25:33;;;;;;;6.80;4.53;;;;;;;4.05;56.00;97938.09;5110549;28;20308;-76
2021/04/16 03:27:58;;;;;;;8.70;4.90;;;;;;;4.15;55.85;97936.00;5101263;28;20027;-76
2021/04/16 03:30:30;;;;;;;9.95;4.50;;;;;;;4.10;56.02;97935.75;5110681;28;20039;-76
2021/04/16 03:32:55;;;;;;;7.90;4.38;;;;;;;4.00;56.82;97935.25;5081794;28;20059;-75
2021/04/16 03:35:21;;;;;;;9.57;4.82;;;;;;;3.95;57.23;97928.06;5107386;28;20047;-75
2021/04/16 03:37:48;;;;;;;9.23;4.82;;;;;;;4.11;57.23;97933.00;5093417;28;20035;-76
2021/04/16 03:40:19;;;;;;;9.13;4.65;;;;;;;4.26;56.68;97929.56;5073766;28;20039;-76
2021/04/16 03:42:44;;;;;;;9.57;5.05;;;;;;;4.22;56.51;97923.97;5101307;28;20110;-76
2021/04/16 03:45:13;;;;;;;8.05;4.70;;;;;;;4.28;56.83;97927.56;5091716;28;20122;-76
2021/04/16 03:47:42;;;;;;;9.50;5.55;;;;;;;4.30;56.70;97923.84;5077510;28;20093;-76
2021/04/16 03:50:08;;;;;;;8.80;5.15;;;;;;;4.49;56.62;97926.78;5106898;28;20476;-76
2021/04/16 03:52:34;;;;;;;8.02;4.93;;;;;;;4.47;56.87;97929.53;5092540;28;20278;-76
2021/04/16 03:54:59;;;;;;;8.13;5.38;;;;;;;4.45;56.21;97925.53;5106096;28;20110;-76
2021/04/16 03:57:24;;;;;;;11.23;6.40;;;;;;;4.37;56.76;97926.47;5086422;28;20489;-76
2021/04/16 03:59:53;;;;;;;8.75;6.07;;;;;;;4.40;57.03;97933.81;5110843;27;20110;-76
2021/04/16 04:02:18;;;;;;;10.30;5.97;;;;;;;4.40;56.88;97935.63;5132198;27;20027;-76
2021/04/16 04:04:43;;;;;;;10.07;6.28;;;;;;;4.41;57.12;97942.38;5096587;27;20038;-76
2021/04/16 04:07:09;;;;;;;8.80;5.70;;;;;;;4.47;56.80;97936.47;5094672;27;20023;-76
2021/04/16 04:09:36;;;;;;;9.45;6.03;;;;;;;4.40;56.83;97930.47;5104900;28;20527;-76
2021/04/16 04:12:01;;;;;;;10.75;6.35;;;;;;;4.37;57.21;97935.97;5108447;28;20482;-76
2021/04/16 04:14:27;;;;;;;9.43;5.80;;;;;;;4.50;56.84;97941.25;5093282;28;20093;-76
2021/04/16 04:16:58;;;;;;;11.68;6.07;;;;;;;4.36;57.08;97935.19;5093556;28;20031;-76
2021/04/16 04:19:25;;;;;;;10.02;6.07;;;;;;;4.43;56.91;97942.97;5091339;28;20032;-76
2021/04/16 04:21:51;;;;;;;8.82;5.97;;;;;;;4.37;56.67;97938.56;5110479;28;20027;-76
2021/04/16 04:24:17;;;;;;;8.55;6.15;;;;;;;4.31;57.12;97940.88;5092870;28;20034;-76
2021/04/16 04:26:44;;;;;;;9.07;5.82;;;;;;;4.27;57.31;97936.31;5113705;27;20027;-76
2021/04/16 04:29:09;;;;;;;10.82;5.95;;;;;;;4.22;57.40;97944.59;5131942;27;20513;-75
2021/04/16 04:31:36;;;;;;;8.95;5.50;;;;;;;4.15;57.48;97941.16;5079776;27;20031;-75
2021/04/16 04:34:03;;;;;;;9.15;5.38;;;;;;;4.03;57.59;97933.09;5131584;27;20038;-76
2021/04/16 04:36:29;;;;;;;10.90;6.15;;;;;;;3.99;58.03;97942.16;5096710;27;20023;-76
2021/04/16 04:38:56;;;;;;;14.20;5.78;;;;;;;4.05;57.92;97944.03;5096956;27;20040;-76
2021/04/16 04:41:22;;;;;;;9.50;4.93;;;;;;;4.05;57.41;97938.09;5088583;27;20131;-76
2021/04/16 04:43:47;;;;;;;9.45;5.25;;;;;;;4.10;57.05;97933.19;5113026;27;20143;-76
2021/04/16 04:46:13;;;;;;;8.30;5.80;;;;;;;4.10;57.18;97940.91;5113530;27;20027;-76
2021/04/16 04:48:39;;;;;;;8.32;5.00;;;;;;;4.14;57.07;97942.13;5113017;27;20098;-76
2021/04/16 04:51:05;;;;;;;10.80;5.75;;;;;;;4.09;57.18;97941.88;5091990;28;20020;-76
2021/04/16 04:53:32;;;;;;;10.02;5.70;;;;;;;4.00;57.38;97940.41;5091035;28;20167;-76
2021/04/16 04:55:57;;;;;;;11.65;6.63;;;;;;;4.06;57.73;97939.66;5089642;27;20169;-76
2021/04/16 04:58:23;;;;;;;10.32;6.07;;;;;;;4.12;57.14;97936.38;5089415;28;20126;-76
2021/04/16 05:00:48;;;;;;;9.45;5.28;;;;;;;4.19;57.14;97942.38;5089223;27;20031;-76
2021/04/16 05:03:14;;;;;;;9.50;5.18;;;;;;;4.16;57.11;97940.16;5130094;27;20124;-75
2021/04/16 05:05:39;;;;;;;11.80;5.93;;;;;;;4.12;57.02;97936.38;5094790;27;20031;-76
2021/04/16 05:08:05;;;;;;;8.63;5.80;;;;;;;4.11;57.61;97940.72;5085885;27;20027;-76
2021/04/16 05:10:30;;;;;;;8.95;5.80;;;;;;;4.08;57.43;97942.88;5111618;27;20121;-76
2021/04/16 05:12:55;;;;;;;9.40;5.80;;;;;;;4.03;57.51;97943.41;5110839;27;20038;-76
2021/04/16 05:15:21;;;;;;;10.77;6.72;;;;;;;4.11;57.21;97945.06;5083461;28;20035;-76
2021/04/16 05:17:47;;;;;;;8.52;6.00;;;;;;;4.15;57.75;97942.91;5100566;27;20031;-76
2021/04/16 05:20:14;;;;;;;10.98;6.60;;;;;;;4.22;57.30;97946.38;5095022;27;20027;-76
2021/04/16 05:22:39;;;;;;;9.52;5.65;;;;;;;4.32;57.11;97932.19;5111559;27;20031;-76
2021/04/16 05:25:05;;;;;;;7.68;5.97;;;;;;;4.40;56.46;97935.63;5094749;27;20046;-76
2021/04/16 05:27:31;;;;;;;9.88;5.57;;;;;;;4.59;56.42;97942.72;5108824;28;20066;-76
2021/04/16 05:29:56;;;;;;;10.07;5.90;;;;;;;4.59;56.99;97940.16;5089389;28;20067;-76
2021/04/16 05:32:22;;;;;;;9.32;5.53;;;;;;;4.74;55.63;97940.03;5108984;27;20412;-76
2021/04/16 05:34:47;;;;;;;8.93;6.10;;;;;;;4.63;55.96;97938.78;5111894;27;20035;-76
2021/04/16 05:37:14;;;;;;;9.02;5.93;;;;;;;4.77;56.22;97936.31;5095458;27;20106;-76
2021/04/16 05:39:39;;;;;;;9.13;5.95;;;;;;;4.77;56.68;97931.94;5078575;27;20045;-76
2021/04/16 05:42:05;;;;;;;10.30;5.85;;;;;;;4.72;56.42;97936.84;5086336;27;20035;-76
2021/04/16 05:44:31;;;;;;;10.80;5.85;;;;;;;4.77;56.21;97936.31;5110411;27;20036;-76
2021/04/16 05:46:57;;;;;;;9.50;6.18;;;;;;;4.95;56.17;97935.81;5091911;27;20105;-76
2021/04/16 05:49:25;;;;;;;9.75;5.75;;;;;;;4.98;55.96;97938.03;5130405;27;20027;-76
2021/04/16 05:51:51;;;;;;;8.60;5.55;;;;;;;4.95;55.58;97939.22;5107100;27;20323;-75
2021/04/16 05:54:17;;;;;;;8.93;5.55;;;;;;;5.04;55.56;97925.16;5076761;27;20114;-76
2021/04/16 05:56:42;;;;;;;8.65;5.43;;;;;;;5.13;55.45;97928.38;5083531;27;20065;-75
2021/04/16 05:59:08;;;;;;;9.07;5.80;;;;;;;5.16;55.02;97940.13;5130225;27;20031;-76
2021/04/16 06:01:33;;;;;;;10.55;7.45;;;;;;;5.10;55.21;97941.66;5078117;27;20422;-75
2021/04/16 06:03:59;;;;;;;13.15;8.77;;;;;;;5.25;54.49;97934.59;5098314;27;20023;-76
2021/04/16 06:06:24;;;;;;;14.35;10.70;;;;;;;5.28;54.63;97933.44;5111828;27;20041;-76
2021/04/16 06:08:49;;;;;;;8.13;6.20;;;;;;;5.19;55.17;97940.53;5095276;27;20061;-75
2021/04/16 06:11:15;;;;;;;11.73;9.38;;;;;;;5.27;54.41;97933.63;5073165;28;20032;-76
2021/04/16 06:13:40;;;;;;;10.88;6.95;;;;;;;5.05;55.12;97944.84;5108328;27;20024;-76
2021/04/16 06:16:07;;;;;;;8.70;5.53;;;;;;;5.30;54.77;97941.78;5112175;27;20423;-76
2021/04/16 06:18:32;;;;;;;8.98;7.03;;;;;;;5.32;54.75;97941.59;5103669;27;20046;-76
2021/04/16 06:20:58;;;;;;;10.25;6.68;;;;;;;5.40;54.65;97947.41;5094711;27;20113;-76
2021/04/16 06:23:23;;;;;;;6.35;5.00;;;;;;;5.25;54.58;97944.13;5129628;27;20031;-76
2021/04/16 06:25:49;;;;;;;10.88;6.03;;;;;;;5.42;54.59;97940.25;5094669;27;20035;-76
2021/04/16 06:28:15;;;;;;;8.45;5.63;;;;;;;5.20;55.42;97933.59;5090990;28;20024;-76
2021/04/16 06:30:44;;;;;;;7.85;5.93;;;;;;;5.37;54.87;97940.03;5093793;27;20335;-76
2021/04/16 06:33:12;;;;;;;6.97;4.63;;;;;;;4.85;56.59;97939.53;5110720;27;20031;-75
2021/04/16 06:35:39;;;;;;;10.45;5.32;;;;;;;5.34;55.35;97940.41;5129581;27;20035;-76
2021/04/16 06:38:04;;;;;;;7.13;5.57;;;;;;;5.09;56.38;97934.94;5077378;27;20473;-75
2021/04/16 06:40:31;;;;;;;10.18;5.07;;;;;;;5.28;55.78;97938.59;5107950;27;20355;-76
2021/04/16 06:42:57;;;;;;;8.00;4.82;;;;;;;5.38;55.45;97931.31;5104838;27;20027;-76
2021/04/16 06:45:31;;;;;;;8.73;5.05;;;;;;;4.80;56.82;97941.09;5102470;27;20075;-75
2021/04/16 06:48:05;;;;;;;8.33;4.47;;;;;;;5.14;56.53;97926.59;5107739;27;20038;-76
2021/04/16 06:50:37;;;;;;;14.35;8.15;;;;;;;5.26;55.92;97927.66;5093030;27;20050;-76
2021/04/16 06:53:30;;;;;;;8.82;5.65;;;;;;;5.41;55.37;97938.63;5110431;27;20056;-76
2021/04/16 06:56:04;;;;;;;8.13;6.13;;;;;;;5.74;55.00;97932.81;5076564;28;20319;-76
2021/04/16 06:59:02;;;;;;;8.60;6.55;;;;;;;5.89;54.19;97931.84;5070842;27;20039;-76
2021/04/16 07:01:37;;;;;;;7.07;4.53;;;;;;;5.46;56.07;97938.06;5105018;27;20043;-76
2021/04/16 07:04:22;;;;;;;6.55;4.50;;;;;;;5.41;56.08;97937.84;5086623;28;20410;-75
2021/04/16 07:06:53;;;;;;;5.82;4.40;;;;;;;5.87;54.16;97920.94;5118470;28;20563;-76
2021/04/16 07:09:26;;;;;;;6.38;4.63;;;;;;;5.95;54.09;97938.84;5074787;28;20031;-75
2021/04/16 07:12:05;;;;;;;5.68;4.53;;;;;;;6.27;53.49;97941.69;5087038;28;20047;-76
2021/04/16 07:14:40;;;;;;;7.00;4.30;;;;;;;6.17;54.06;97939.53;5080525;28;20032;-76
2021/04/16 07:17:07;;;;;;;6.35;4.05;;;;;;;6.26;53.85;97942.72;5090536;28;20035;-76
2021/04/16 07:19:33;;;;;;;6.18;4.32;;;;;;;6.00;54.08;97939.88;5070458;28;20655;-76
2021/04/16 07:22:02;;;;;;;7.07;4.53;;;;;;;6.29;54.24;97940.53;5106896;28;20118;-76
2021/04/16 07:24:28;;;;;;;9.48;5.25;;;;;;;6.78;53.13;97937.75;5090372;28;20028;-76
2021/04/16 07:26:59;;;;;;;6.88;4.70;;;;;;;6.86;51.94;97943.50;5107327;28;20027;-76
2021/04/16 07:29:41;;;;;;;10.20;5.43;;;;;;;6.65;52.17;97946.28;5094072;28;20118;-76
2021/04/16 07:32:37;;;;;;;8.60;4.72;;;;;;;6.30;53.35;97938.72;5107482;28;20092;-76
2021/04/16 07:35:16;;;;;;;;;;;;;;;6.52;53.29;97945.31;5095532;27;20128;-76
2021/04/16 07:37:44;;;;;;;5.85;3.60;;;;;;;7.24;51.62;97945.41;5095797;27;19930;-76
2021/04/16 07:40:22;;;;;;;7.13;4.22;;;;;;;7.81;50.86;97952.59;5098866;27;20046;-76
2021/04/16 07:42:49;;;;;;;4.97;3.30;;;;;;;8.40;49.16;97945.47;5093063;27;20039;-76
2021/04/16 07:45:15;;;;;;;4.10;3.03;;;;;;;8.86;47.95;97943.50;5078458;27;20035;-76
2021/04/16 07:47:41;;;;;;;4.35;3.40;;;;;;;8.52;46.80;97932.63;5117584;27;20077;-76
2021/04/16 07:50:31;;;;;;;4.45;3.40;;;;;;;8.12;47.63;97944.03;5092608;27;20467;-76
2021/04/16 07:52:57;;;;;;;4.28;3.22;;;;;;;8.50;46.12;97937.22;5086532;28;20469;-76
2021/04/16 07:55:31;;;;;;;4.40;2.78;;;;;;;8.21;46.66;97940.19;5081863;27;20598;-77
2021/04/16 07:58:14;;;;;;;4.13;3.08;;;;;;;8.14;47.00;97936.84;5090493;27;20456;-76
2021/04/16 08:00:41;;;;;;;3.90;2.80;;;;;;;7.82;47.08;97943.81;5100484;27;20550;-76
2021/04/16 08:03:12;;;;;;;4.63;3.08;;;;;;;7.96;47.38;97940.13;5091540;27;20087;-76
2021/04/16 08:05:41;;;;;;;4.05;2.92;;;;;;;8.34;45.91;97941.88;5124027;27;20023;-76
2021/04/16 08:08:13;;;;;;;4.97;3.60;;;;;;;7.95;46.35;97940.34;5100227;27;20023;-76
2021/04/16 08:10:42;;;;;;;4.22;3.22;;;;;;;7.41;48.16;97934.63;5117290;27;20399;-76
2021/04/16 08:13:15;;;;;;;4.57;3.38;;;;;;;7.37;47.70;97938.59;5111572;27;20027;-76
2021/04/16 08:15:41;;;;;;;4.50;2.90;;;;;;;8.07;47.10;97936.88;5065291;28;20686;-75
2021/04/16 08:18:10;;;;;;;6.10;3.50;;;;;;;8.50;45.19;97937.22;5077148;27;20032;-76
2021/04/16 08:20:58;;;;;;;3.70;2.85;;;;;;;8.76;44.93;97938.81;5111927;27;20076;-76
2021/04/16 08:23:25;;;;;;;3.90;3.17;;;;;;;8.89;43.79;97936.06;5071631;27;20057;-76
2021/04/16 08:25:55;;;;;;;3.53;2.65;;;;;;;8.80;42.92;97940.75;5105763;27;20039;-76
2021/04/16 08:28:29;;;;;;;4.57;3.25;;;;;;;7.90;44.97;97950.53;5109170;27;20493;-76
2021/04/16 08:31:00;;;;;;;4.88;3.45;;;;;;;8.21;44.80;97952.38;5101472;27;20103;-76
2021/04/16 08:33:25;;;;;;;4.38;3.05;;;;;;;8.03;46.04;97953.84;5108187;28;20032;-76
2021/04/16 08:35:59;;;;;;;5.25;3.13;;;;;;;6.40;48.13;97952.06;5102109;28;20042;-75
2021/04/16 08:38:28;;;;;;;3.63;2.70;;;;;;;7.42;47.07;97954.31;5106581;28;20031;-76
2021/04/16 08:40:58;;;;;;;4.47;2.92;;;;;;;6.74;48.53;97948.47;5085513;28;20039;-76
2021/04/16 08:43:38;;;;;;;3.92;3.10;;;;;;;7.23;47.51;97954.19;5079511;27;20426;-76
2021/04/16 08:46:24;;;;;;;4.90;2.60;;;;;;;7.21;47.42;97953.59;5108092;28;20422;-76
2021/04/16 08:48:54;;;;;;;3.70;2.80;;;;;;;7.58;46.46;97948.69;5112516;27;20673;-76
2021/04/16 08:51:24;;;;;;;3.70;2.65;;;;;;;7.63;46.62;97950.69;5096102;27;20038;-76
2021/04/16 08:53:50;;;;;;;4.45;2.70;;;;;;;7.23;46.84;97961.97;5111350;27;20034;-76
2021/04/16 08:56:26;;;;;;;3.97;2.90;;;;;;;6.77;46.73;97949.06;5105219;27;20031;-76
2021/04/16 08:58:53;;;;;;;4.25;2.38;;;;;;;7.40;45.59;97951.97;5085188;28;20122;-76
2021/04/16 09:01:29;;;;;;;3.75;2.70;;;;;;;6.19;47.17;97947.88;5112573;27;20123;-76
2021/04/16 09:03:57;;;;;;;5.78;2.40;;;;;;;6.81;46.09;97943.31;5077617;27;20364;-76
2021/04/16 09:06:31;;;;;;;3.38;2.17;;;;;;;6.55;46.62;97949.28;5094833;27;20037;-76
2021/04/16 09:08:59;;;;;;;4.30;2.40;;;;;;;6.90;46.88;97955.03;5122875;27;20043;-76
2021/04/16 09:11:43;;;;;;;2.28;1.92;;;;;;;6.59;46.78;97949.69;5086527;27;20024;-76
2021/04/16 09:14:10;;;;;;;4.43;2.30;;;;;;;7.34;44.92;97952.78;5094348;27;20035;-76
2021/04/16 09:16:48;;;;;;;3.28;1.90;;;;;;;7.26;45.05;97955.56;5112036;27;20046;-76
2021/04/16 09:19:27;;;;;;;3.45;2.28;;;;;;;7.59;45.29;97955.47;5090977;27;20536;-76
2021/04/16 09:22:23;;;;;;;5.63;2.65;;;;;;;7.63;45.61;97961.84;5094862;27;20389;-76
2021/04/16 09:24:55;;;;;;;2.80;2.08;;;;;;;7.46;45.17;97955.53;5075721;27;20042;-75
2021/04/16 09:27:41;;;;;;;3.63;2.08;;;;;;;7.34;45.83;97959.75;5090873;28;20410;-76
2021/04/16 09:30:08;;;;;;;4.53;2.42;;;;;;;7.93;45.85;97963.88;5091162;28;20103;-76
2021/04/16 09:32:36;;;;;;;4.05;2.47;;;;;;;7.76;45.27;97962.78;5088581;28;20036;-76
2021/04/16 09:35:10;;;;;;;4.57;2.50;;;;;;;7.38;45.47;97960.94;5111444;27;20523;-75
2021/04/16 09:37:39;;;;;;;2.60;1.90;;;;;;;7.45;45.67;97959.91;5096428;28;20040;-76
2021/04/16 09:40:13;;;;;;;3.92;2.35;;;;;;;7.73;45.63;97958.00;5087392;28;20356;-76
2021/04/16 09:42:40;;;;;;;3.13;2.30;;;;;;;8.27;44.99;97961.91;5087681;27;20497;-76
2021/04/16 09:45:11;;;;;;;2.60;1.90;;;;;;;8.10;44.85;97960.81;5078699;27;20397;-76
2021/04/16 09:47:43;;;;;;;3.58;2.35;;;;;;;8.17;44.57;97953.78;5072725;27;20369;-76
2021/04/16 09:50:24;;;;;;;2.70;2.10;;;;;;;8.06;44.87;97952.66;5086658;27;20037;-75
2021/04/16 09:53:29;;;;;;;13.55;6.32;;;;;;;8.03;45.12;97956.44;5128527;27;20092;-76
2021/04/16 09:56:04;;;;;;;3.10;2.20;;;;;;;8.38;44.50;97963.84;4987363;28;20124;-75
2021/04/16 09:58:29;;;;;;;3.35;2.22;;;;;;;8.42;44.70;97962.44;4969714;28;20516;-76
2021/04/16 10:00:54;;;;;;;2.72;1.83;;;;;;;8.31;44.61;97963.09;5005871;28;20034;-76
2021/04/16 10:03:21;;;;;;;2.88;2.38;;;;;;;7.97;44.11;97959.88;5005499;28;20030;-75
2021/04/16 10:05:46;;;;;;;7.00;4.05;;;;;;;8.34;44.24;97961.84;5005523;28;20041;-76
2021/04/16 10:08:22;;;;;;;4.00;2.05;;;;;;;7.92;44.38;97956.31;4963050;28;20641;-76
2021/04/16 10:10:48;;;;;;;2.63;2.08;;;;;;;7.72;44.73;97966.78;4973192;28;20030;-75
2021/04/16 10:13:23;;;;;;;2.50;1.80;;;;;;;7.57;45.51;97959.25;4988228;28;20104;-75
2021/04/16 10:15:53;;;;;;;3.25;2.78;;;;;;;7.99;44.17;97955.28;4986446;28;20048;-76
2021/04/16 10:18:28;;;;;;;3.53;2.63;;;;;;;8.17;44.08;97949.38;4980073;28;20517;-76
2021/04/16 10:21:18;;;;;;;3.47;2.20;;;;;;;8.35;44.19;97956.47;5007080;28;20048;-76
2021/04/16 10:25:21;;;;;;;2.25;1.85;;;;;;;7.76;44.71;97960.19;5008396;28;20631;-76
2021/04/16 12:39:05;;;;;;;2.55;1.70;;;;;;;9.63;41.86;97922.28;5079885;27;20038;-76
2021/04/16 12:41:37;;;;;;;2.22;1.23;;;;;;;9.91;41.72;97922.53;5099687;27;20047;-76
2021/04/16 12:44:03;;;;;;;1.85;0.95;;;;;;;9.71;41.76;97919.41;5092101;28;20269;-76
2021/04/16 12:46:33;;;;;;;2.05;1.20;;;;;;;9.32;41.98;97921.44;5077456;27;20030;-76
2021/04/16 12:48:59;;;;;;;1.42;0.98;;;;;;;10.05;41.35;97925.72;5104776;27;20039;-76
2021/04/16 12:51:24;;;;;;;1.83;1.02;;;;;;;9.75;40.98;97928.34;5099592;27;20046;-76
2021/04/16 12:53:49;;;;;;;2.63;2.05;;;;;;;9.34;42.22;97925.44;5076860;27;20067;-76
2021/04/16 12:56:21;;;;;;;2.35;1.15;;;;;;;9.55;41.91;97921.59;5117316;27;20076;-76
2021/04/16 12:58:47;;;;;;;1.73;1.15;;;;;;;9.08;42.68;97918.75;5090784;27;20084;-76
2021/04/16 13:01:26;;;;;;;2.42;1.10;;;;;;;9.18;42.54;97926.00;5107181;28;20035;-77
2021/04/16 13:03:52;;;;;;;1.33;0.80;;;;;;;9.29;42.74;97917.50;5074124;27;20030;-76
2021/04/16 13:06:37;;;;;;;1.88;1.20;;;;;;;9.52;41.94;97919.41;5090118;27;20083;-76
2021/04/16 13:09:05;;;;;;;2.45;1.30;;;;;;;10.04;40.52;97905.13;5105066;27;20037;-76
2021/04/16 13:11:30;;;;;;;2.53;1.00;;;;;;;9.98;40.97;97911.25;5089205;27;20112;-76
2021/04/16 13:13:57;;;;;;;2.33;0.93;;;;;;;9.50;41.46;97911.06;5076930;27;20315;-76
2021/04/16 13:16:24;;;;;;;1.98;1.23;;;;;;;9.42;41.66;97910.56;5092961;27;20027;-76
2021/04/16 13:18:52;;;;;;;2.25;1.17;;;;;;;9.25;41.98;97912.94;5060816;27;20249;-76
2021/04/16 13:21:35;;;;;;;3.45;1.48;;;;;;;9.36;41.83;97907.81;5094328;27;20454;-76
2021/04/16 13:24:02;;;;;;;3.10;1.75;;;;;;;9.79;42.00;97907.91;5093333;27;20390;-76
2021/04/16 13:26:28;;;;;;;3.63;1.00;;;;;;;10.10;40.86;97906.84;5107835;28;20111;-76
2021/04/16 13:28:54;;;;;;;1.55;1.00;;;;;;;9.92;40.19;97895.50;5109443;27;20529;-76
2021/04/16 13:31:21;;;;;;;1.88;1.17;;;;;;;9.69;40.59;97903.22;5054578;28;20126;-76
2021/04/16 13:33:47;;;;;;;2.10;1.35;;;;;;;9.25;41.73;97900.75;5089463;27;20038;-76
2021/04/16 13:36:15;;;;;;;3.35;1.00;;;;;;;9.41;41.54;97903.75;5110987;27;20374;-76
2021/04/16 13:38:41;;;;;;;3.42;1.25;;;;;;;9.58;41.91;97896.97;5109008;27;20125;-76
2021/04/16 13:41:07;;;;;;;1.25;1.00;;;;;;;9.47;41.24;97893.28;5109259;27;20068;-76
2021/04/16 13:43:34;;;;;;;2.67;1.35;;;;;;;9.39;41.60;97896.22;5076363;27;20393;-76
2021/04/16 13:46:02;;;;;;;1.52;1.00;;;;;;;9.21;42.18;97902.19;5110844;27;20028;-76
2021/04/16 13:48:28;;;;;;;1.90;1.42;;;;;;;9.25;42.50;97879.16;5108950;27;20034;-76
2021/04/16 13:50:54;;;;;;;1.90;1.40;;;;;;;9.84;41.60;97882.03;5069292;27;20024;-76
2021/04/16 13:53:19;;;;;;;2.45;1.25;;;;;;;9.79;41.13;97885.28;5109431;27;20542;-75
2021/04/16 13:55:45;;;;;;;2.30;1.08;;;;;;;9.46;42.00;97885.69;5065402;27;20027;-77
2021/04/16 13:58:11;;;;;;;2.35;1.00;;;;;;;9.27;41.95;97875.34;5119392;27;20032;-76
2021/04/16 14:00:36;;;;;;;2.67;1.42;;;;;;;9.41;42.01;97875.16;5092624;27;20027;-76
2021/04/16 14:03:33;;;;;;;3.15;1.13;;;;;;;9.38;41.60;97881.63;5101337;28;20028;-76
2021/04/16 14:06:02;;;;;;;2.10;1.10;;;;;;;9.65;41.63;97886.50;5121274;27;20058;-76